sensor_id;sensor_type;location;lat;lon;timestamp;P1;durP1;ratioP1;P2;durP2;ratioP2
63434;SDS011;68814;50.872;5.306;2023-03-31T00:10:19;16.52;;;2.65;;
63434;SDS011;68814;50.872;5.306;2023-03-31T00:12:46;11.23;;;2.08;;
63434;SDS011;68814;50.872;5.306;2023-03-31T00:15:12;13.80;;;1.95;;
63434;SDS011;68814;50.872;5.306;2023-03-31T00:17:37;11.23;;;1.40;;
63434;SDS011;68814;50.872;5.306;2023-03-31T00:20:04;13.48;;;2.03;;
63434;SDS011;68814;50.872;5.306;2023-03-31T00:29:25;16.52;;;1.98;;
63434;SDS011;68814;50.872;5.306;2023-03-31T00:31:51;12.55;;;1.75;;
63434;SDS011;68814;50.872;5.306;2023-03-31T00:34:17;15.43;;;1.98;;
63434;SDS011;68814;50.872;5.306;2023-03-31T00:36:42;12.60;;;1.63;;
63434;SDS011;68814;50.872;5.306;2023-03-31T00:39:15;15.02;;;2.05;;
63434;SDS011;68814;50.872;5.306;2023-03-31T00:41:43;19.50;;;1.98;;
63434;SDS011;68814;50.872;5.306;2023-03-31T00:44:19;13.25;;;1.55;;
63434;SDS011;68814;50.872;5.306;2023-03-31T00:51:56;13.27;;;2.03;;
63434;SDS011;68814;50.872;5.306;2023-03-31T00:54:29;21.38;;;2.63;;
63434;SDS011;68814;50.872;5.306;2023-03-31T00:56:57;17.80;;;2.42;;
63434;SDS011;68814;50.872;5.306;2023-03-31T00:59:28;20.40;;;2.88;;
63434;SDS011;68814;50.872;5.306;2023-03-31T01:01:55;15.48;;;2.08;;
63434;SDS011;68814;50.872;5.306;2023-03-31T01:04:27;19.10;;;2.38;;
63434;SDS011;68814;50.872;5.306;2023-03-31T01:10:02;15.70;;;2.22;;
63434;SDS011;68814;50.872;5.306;2023-03-31T01:12:29;19.38;;;2.45;;
63434;SDS011;68814;50.872;5.306;2023-03-31T01:14:57;17.48;;;2.50;;
63434;SDS011;68814;50.872;5.306;2023-03-31T01:45:54;14.65;;;1.90;;
63434;SDS011;68814;50.872;5.306;2023-03-31T01:51:26;18.83;;;2.67;;
63434;SDS011;68814;50.872;5.306;2023-03-31T02:03:28;15.27;;;1.90;;
63434;SDS011;68814;50.872;5.306;2023-03-31T02:06:04;12.32;;;2.00;;
63434;SDS011;68814;50.872;5.306;2023-03-31T02:08:48;12.35;;;1.40;;
63434;SDS011;68814;50.872;5.306;2023-03-31T02:25:11;10.52;;;1.25;;
63434;SDS011;68814;50.872;5.306;2023-03-31T02:27:41;11.23;;;1.10;;
63434;SDS011;68814;50.872;5.306;2023-03-31T02:30:11;6.13;;;1.13;;
63434;SDS011;68814;50.872;5.306;2023-03-31T02:32:41;6.70;;;1.35;;
63434;SDS011;68814;50.872;5.306;2023-03-31T02:35:09;8.82;;;1.20;;
63434;SDS011;68814;50.872;5.306;2023-03-31T02:37:43;12.40;;;1.85;;
63434;SDS011;68814;50.872;5.306;2023-03-31T02:40:11;6.32;;;0.70;;
63434;SDS011;68814;50.872;5.306;2023-03-31T02:42:47;10.20;;;1.05;;
63434;SDS011;68814;50.872;5.306;2023-03-31T03:08:24;5.72;;;1.13;;
63434;SDS011;68814;50.872;5.306;2023-03-31T03:11:16;8.88;;;1.05;;
63434;SDS011;68814;50.872;5.306;2023-03-31T03:17:22;5.75;;;0.80;;
63434;SDS011;68814;50.872;5.306;2023-03-31T03:19:54;3.78;;;0.70;;
63434;SDS011;68814;50.872;5.306;2023-03-31T03:22:23;5.50;;;1.27;;
63434;SDS011;68814;50.872;5.306;2023-03-31T03:24:48;6.50;;;1.02;;
63434;SDS011;68814;50.872;5.306;2023-03-31T03:27:15;6.03;;;1.00;;
63434;SDS011;68814;50.872;5.306;2023-03-31T03:29:41;5.55;;;0.73;;
63434;SDS011;68814;50.872;5.306;2023-03-31T03:32:07;4.25;;;0.82;;
63434;SDS011;68814;50.872;5.306;2023-03-31T03:34:33;6.47;;;0.80;;
63434;SDS011;68814;50.872;5.306;2023-03-31T03:36:59;9.95;;;1.23;;
63434;SDS011;68814;50.872;5.306;2023-03-31T03:39:25;5.35;;;1.00;;
63434;SDS011;68814;50.872;5.306;2023-03-31T03:41:51;6.03;;;1.13;;
63434;SDS011;68814;50.872;5.306;2023-03-31T03:44:16;8.80;;;1.20;;
63434;SDS011;68814;50.872;5.306;2023-03-31T03:46:42;6.43;;;1.33;;
63434;SDS011;68814;50.872;5.306;2023-03-31T03:49:07;5.63;;;0.75;;
63434;SDS011;68814;50.872;5.306;2023-03-31T03:51:33;7.38;;;1.05;;
63434;SDS011;68814;50.872;5.306;2023-03-31T03:53:59;4.85;;;0.68;;
63434;SDS011;68814;50.872;5.306;2023-03-31T03:56:25;3.45;;;0.70;;
63434;SDS011;68814;50.872;5.306;2023-03-31T03:58:51;3.45;;;1.00;;
63434;SDS011;68814;50.872;5.306;2023-03-31T04:01:17;5.25;;;1.02;;
63434;SDS011;68814;50.872;5.306;2023-03-31T04:03:43;9.02;;;1.13;;
63434;SDS011;68814;50.872;5.306;2023-03-31T04:06:09;6.22;;;1.27;;
63434;SDS011;68814;50.872;5.306;2023-03-31T04:08:34;7.70;;;0.95;;
63434;SDS011;68814;50.872;5.306;2023-03-31T04:11:01;7.18;;;1.30;;
63434;SDS011;68814;50.872;5.306;2023-03-31T04:20:11;11.02;;;1.45;;
63434;SDS011;68814;50.872;5.306;2023-03-31T04:22:37;8.52;;;1.30;;
63434;SDS011;68814;50.872;5.306;2023-03-31T04:25:07;4.95;;;0.82;;
63434;SDS011;68814;50.872;5.306;2023-03-31T04:27:43;4.88;;;0.82;;
63434;SDS011;68814;50.872;5.306;2023-03-31T04:30:15;5.45;;;0.98;;
63434;SDS011;68814;50.872;5.306;2023-03-31T04:32:50;11.83;;;1.43;;
63434;SDS011;68814;50.872;5.306;2023-03-31T04:35:19;9.50;;;1.20;;
63434;SDS011;68814;50.872;5.306;2023-03-31T04:37:46;5.88;;;0.75;;
63434;SDS011;68814;50.872;5.306;2023-03-31T04:53:03;8.95;;;1.88;;
63434;SDS011;68814;50.872;5.306;2023-03-31T04:55:30;9.60;;;1.50;;
63434;SDS011;68814;50.872;5.306;2023-03-31T04:57:56;10.60;;;1.40;;
63434;SDS011;68814;50.872;5.306;2023-03-31T05:00:22;9.10;;;1.00;;
63434;SDS011;68814;50.872;5.306;2023-03-31T05:26:21;12.07;;;1.45;;
63434;SDS011;68814;50.872;5.306;2023-03-31T05:28:53;10.38;;;1.42;;
63434;SDS011;68814;50.872;5.306;2023-03-31T05:31:19;8.48;;;1.20;;
63434;SDS011;68814;50.872;5.306;2023-03-31T05:33:44;8.75;;;1.48;;
63434;SDS011;68814;50.872;5.306;2023-03-31T05:36:14;9.05;;;1.33;;
63434;SDS011;68814;50.872;5.306;2023-03-31T05:38:42;8.25;;;1.30;;
63434;SDS011;68814;50.872;5.306;2023-03-31T05:44:30;9.57;;;1.25;;
63434;SDS011;68814;50.872;5.306;2023-03-31T05:46:55;8.05;;;0.90;;
63434;SDS011;68814;50.872;5.306;2023-03-31T05:49:21;7.80;;;1.30;;
63434;SDS011;68814;50.872;5.306;2023-03-31T05:51:47;10.38;;;1.20;;
63434;SDS011;68814;50.872;5.306;2023-03-31T05:54:12;5.97;;;1.05;;
63434;SDS011;68814;50.872;5.306;2023-03-31T05:56:38;9.52;;;1.17;;
63434;SDS011;68814;50.872;5.306;2023-03-31T05:59:17;8.95;;;1.00;;
63434;SDS011;68814;50.872;5.306;2023-03-31T06:01:43;11.85;;;1.27;;
63434;SDS011;68814;50.872;5.306;2023-03-31T06:04:08;3.53;;;1.05;;
63434;SDS011;68814;50.872;5.306;2023-03-31T06:06:34;5.28;;;1.20;;
63434;SDS011;68814;50.872;5.306;2023-03-31T06:09:02;10.20;;;1.38;;
63434;SDS011;68814;50.872;5.306;2023-03-31T06:18:12;5.72;;;1.10;;
63434;SDS011;68814;50.872;5.306;2023-03-31T06:20:38;8.15;;;1.50;;
63434;SDS011;68814;50.872;5.306;2023-03-31T06:23:05;10.95;;;1.88;;
63434;SDS011;68814;50.872;5.306;2023-03-31T06:25:31;6.22;;;1.00;;
63434;SDS011;68814;50.872;5.306;2023-03-31T06:27:56;10.93;;;1.25;;
63434;SDS011;68814;50.872;5.306;2023-03-31T06:30:22;10.15;;;1.60;;
63434;SDS011;68814;50.872;5.306;2023-03-31T06:32:48;12.90;;;2.55;;
63434;SDS011;68814;50.872;5.306;2023-03-31T06:35:13;8.73;;;1.83;;
63434;SDS011;68814;50.872;5.306;2023-03-31T06:37:39;8.07;;;1.58;;
63434;SDS011;68814;50.872;5.306;2023-03-31T06:40:05;12.75;;;2.00;;
63434;SDS011;68814;50.872;5.306;2023-03-31T06:42:31;11.45;;;1.67;;
63434;SDS011;68814;50.872;5.306;2023-03-31T06:44:57;12.63;;;2.00;;
63434;SDS011;68814;50.872;5.306;2023-03-31T06:54:21;15.82;;;1.80;;
63434;SDS011;68814;50.872;5.306;2023-03-31T06:56:47;14.38;;;1.92;;
63434;SDS011;68814;50.872;5.306;2023-03-31T06:59:13;10.95;;;2.10;;
63434;SDS011;68814;50.872;5.306;2023-03-31T07:01:39;11.23;;;1.73;;
63434;SDS011;68814;50.872;5.306;2023-03-31T07:04:06;13.98;;;2.30;;
63434;SDS011;68814;50.872;5.306;2023-03-31T07:06:32;14.63;;;1.77;;
63434;SDS011;68814;50.872;5.306;2023-03-31T07:08:59;12.15;;;1.98;;
63434;SDS011;68814;50.872;5.306;2023-03-31T07:11:30;12.60;;;1.80;;
63434;SDS011;68814;50.872;5.306;2023-03-31T07:13:56;10.30;;;1.75;;
63434;SDS011;68814;50.872;5.306;2023-03-31T07:16:22;11.32;;;1.73;;
63434;SDS011;68814;50.872;5.306;2023-03-31T07:18:47;14.75;;;1.77;;
63434;SDS011;68814;50.872;5.306;2023-03-31T07:21:14;14.52;;;1.77;;
63434;SDS011;68814;50.872;5.306;2023-03-31T07:27:07;15.50;;;1.95;;
63434;SDS011;68814;50.872;5.306;2023-03-31T07:29:33;19.60;;;2.85;;
63434;SDS011;68814;50.872;5.306;2023-03-31T07:31:59;15.77;;;2.97;;
63434;SDS011;68814;50.872;5.306;2023-03-31T07:34:24;16.35;;;2.53;;
63434;SDS011;68814;50.872;5.306;2023-03-31T07:36:53;17.48;;;2.53;;
63434;SDS011;68814;50.872;5.306;2023-03-31T07:39:20;12.52;;;2.20;;
63434;SDS011;68814;50.872;5.306;2023-03-31T07:41:46;15.23;;;3.33;;
63434;SDS011;68814;50.872;5.306;2023-03-31T07:44:11;16.45;;;2.17;;
63434;SDS011;68814;50.872;5.306;2023-03-31T07:46:38;13.13;;;2.35;;
63434;SDS011;68814;50.872;5.306;2023-03-31T07:49:04;15.60;;;1.92;;
63434;SDS011;68814;50.872;5.306;2023-03-31T07:51:31;12.57;;;2.13;;
63434;SDS011;68814;50.872;5.306;2023-03-31T07:53:58;11.45;;;2.13;;
63434;SDS011;68814;50.872;5.306;2023-03-31T07:56:23;16.15;;;2.90;;
63434;SDS011;68814;50.872;5.306;2023-03-31T07:58:49;18.45;;;2.70;;
63434;SDS011;68814;50.872;5.306;2023-03-31T08:01:17;10.18;;;1.80;;
63434;SDS011;68814;50.872;5.306;2023-03-31T08:03:44;13.48;;;2.28;;
63434;SDS011;68814;50.872;5.306;2023-03-31T08:06:11;12.02;;;2.15;;
63434;SDS011;68814;50.872;5.306;2023-03-31T08:08:43;11.07;;;2.58;;
63434;SDS011;68814;50.872;5.306;2023-03-31T08:11:09;14.23;;;2.45;;
63434;SDS011;68814;50.872;5.306;2023-03-31T08:16:56;16.20;;;2.63;;
63434;SDS011;68814;50.872;5.306;2023-03-31T08:19:22;16.00;;;2.38;;
63434;SDS011;68814;50.872;5.306;2023-03-31T08:21:48;16.25;;;3.53;;
63434;SDS011;68814;50.872;5.306;2023-03-31T08:24:13;16.17;;;2.28;;
63434;SDS011;68814;50.872;5.306;2023-03-31T08:52:46;14.18;;;2.85;;
63434;SDS011;68814;50.872;5.306;2023-03-31T09:17:37;13.38;;;2.50;;
63434;SDS011;68814;50.872;5.306;2023-03-31T09:22:42;17.85;;;2.20;;
63434;SDS011;68814;50.872;5.306;2023-03-31T09:25:17;12.50;;;1.52;;
63434;SDS011;68814;50.872;5.306;2023-03-31T09:27:47;8.48;;;2.00;;
63434;SDS011;68814;50.872;5.306;2023-03-31T09:30:18;16.63;;;2.03;;
63434;SDS011;68814;50.872;5.306;2023-03-31T09:32:51;9.70;;;2.20;;
63434;SDS011;68814;50.872;5.306;2023-03-31T09:35:23;11.27;;;1.52;;
63434;SDS011;68814;50.872;5.306;2023-03-31T09:37:51;6.78;;;1.10;;
63434;SDS011;68814;50.872;5.306;2023-03-31T09:40:24;8.38;;;1.63;;
63434;SDS011;68814;50.872;5.306;2023-03-31T09:45:37;8.10;;;1.40;;
63434;SDS011;68814;50.872;5.306;2023-03-31T09:48:04;6.38;;;1.20;;
63434;SDS011;68814;50.872;5.306;2023-03-31T09:50:40;9.30;;;1.50;;
63434;SDS011;68814;50.872;5.306;2023-03-31T09:53:17;6.97;;;1.58;;
63434;SDS011;68814;50.872;5.306;2023-03-31T09:55:53;8.23;;;1.30;;
63434;SDS011;68814;50.872;5.306;2023-03-31T10:01:51;9.63;;;1.50;;
63434;SDS011;68814;50.872;5.306;2023-03-31T10:04:24;5.28;;;1.08;;
63434;SDS011;68814;50.872;5.306;2023-03-31T10:06:52;10.55;;;1.63;;
63434;SDS011;68814;50.872;5.306;2023-03-31T10:09:26;12.70;;;1.70;;
63434;SDS011;68814;50.872;5.306;2023-03-31T10:14:51;11.63;;;2.45;;
63434;SDS011;68814;50.872;5.306;2023-03-31T10:17:22;16.80;;;2.63;;
63434;SDS011;68814;50.872;5.306;2023-03-31T10:24:49;15.57;;;2.53;;
63434;SDS011;68814;50.872;5.306;2023-03-31T10:27:23;12.70;;;2.45;;
63434;SDS011;68814;50.872;5.306;2023-03-31T10:29:55;14.57;;;2.92;;
63434;SDS011;68814;50.872;5.306;2023-03-31T10:34:56;11.93;;;2.85;;
63434;SDS011;68814;50.872;5.306;2023-03-31T10:37:29;21.52;;;2.40;;
63434;SDS011;68814;50.872;5.306;2023-03-31T10:39:59;16.40;;;2.58;;
63434;SDS011;68814;50.872;5.306;2023-03-31T10:42:45;17.45;;;2.10;;
63434;SDS011;68814;50.872;5.306;2023-03-31T10:45:24;15.88;;;2.30;;
63434;SDS011;68814;50.872;5.306;2023-03-31T10:47:56;14.38;;;3.08;;
63434;SDS011;68814;50.872;5.306;2023-03-31T10:50:28;20.10;;;2.70;;
63434;SDS011;68814;50.872;5.306;2023-03-31T10:53:05;16.75;;;2.83;;
63434;SDS011;68814;50.872;5.306;2023-03-31T10:55:50;18.65;;;3.03;;
63434;SDS011;68814;50.872;5.306;2023-03-31T10:59:09;14.23;;;2.58;;
63434;SDS011;68814;50.872;5.306;2023-03-31T11:29:38;16.55;;;2.30;;
63434;SDS011;68814;50.872;5.306;2023-03-31T11:35:22;12.27;;;2.08;;
63434;SDS011;68814;50.872;5.306;2023-03-31T11:40:51;11.35;;;1.95;;
63434;SDS011;68814;50.872;5.306;2023-03-31T11:43:33;8.03;;;1.20;;
63434;SDS011;68814;50.872;5.306;2023-03-31T11:46:51;8.50;;;1.60;;
63434;SDS011;68814;50.872;5.306;2023-03-31T11:51:55;9.85;;;1.50;;
63434;SDS011;68814;50.872;5.306;2023-03-31T12:07:57;12.20;;;2.65;;
63434;SDS011;68814;50.872;5.306;2023-03-31T12:26:36;10.45;;;1.55;;
63434;SDS011;68814;50.872;5.306;2023-03-31T12:29:06;7.75;;;1.60;;
63434;SDS011;68814;50.872;5.306;2023-03-31T12:31:49;9.00;;;1.58;;
63434;SDS011;68814;50.872;5.306;2023-03-31T12:34:20;6.97;;;1.42;;
63434;SDS011;68814;50.872;5.306;2023-03-31T12:50:30;9.18;;;1.17;;
63434;SDS011;68814;50.872;5.306;2023-03-31T13:02:32;6.32;;;1.10;;
63434;SDS011;68814;50.872;5.306;2023-03-31T13:04:58;10.35;;;1.10;;
63434;SDS011;68814;50.872;5.306;2023-03-31T13:09:58;7.65;;;1.52;;
63434;SDS011;68814;50.872;5.306;2023-03-31T13:12:38;12.20;;;1.95;;
63434;SDS011;68814;50.872;5.306;2023-03-31T13:15:05;13.05;;;1.95;;
63434;SDS011;68814;50.872;5.306;2023-03-31T13:17:38;14.50;;;1.40;;
63434;SDS011;68814;50.872;5.306;2023-03-31T13:23:33;9.63;;;1.58;;
63434;SDS011;68814;50.872;5.306;2023-03-31T13:26:01;15.32;;;2.65;;
63434;SDS011;68814;50.872;5.306;2023-03-31T13:28:39;12.80;;;1.95;;
63434;SDS011;68814;50.872;5.306;2023-03-31T13:31:07;8.15;;;1.90;;
63434;SDS011;68814;50.872;5.306;2023-03-31T13:43:36;7.88;;;1.17;;
63434;SDS011;68814;50.872;5.306;2023-03-31T13:46:33;8.68;;;1.30;;
63434;SDS011;68814;50.872;5.306;2023-03-31T13:51:57;7.20;;;0.82;;
63434;SDS011;68814;50.872;5.306;2023-03-31T14:00:33;7.93;;;0.80;;
63434;SDS011;68814;50.872;5.306;2023-03-31T14:03:43;10.00;;;1.00;;
63434;SDS011;68814;50.872;5.306;2023-03-31T14:08:53;9.85;;;1.40;;
63434;SDS011;68814;50.872;5.306;2023-03-31T14:40:13;5.22;;;1.05;;
63434;SDS011;68814;50.872;5.306;2023-03-31T14:42:41;8.98;;;1.20;;
63434;SDS011;68814;50.872;5.306;2023-03-31T14:45:23;8.93;;;1.00;;
63434;SDS011;68814;50.872;5.306;2023-03-31T14:54:00;2.65;;;0.75;;
63434;SDS011;68814;50.872;5.306;2023-03-31T14:58:55;4.05;;;0.50;;
63434;SDS011;68814;50.872;5.306;2023-03-31T15:01:22;6.55;;;0.75;;
63434;SDS011;68814;50.872;5.306;2023-03-31T15:03:52;3.35;;;0.68;;
63434;SDS011;68814;50.872;5.306;2023-03-31T15:06:19;1.80;;;0.47;;
63434;SDS011;68814;50.872;5.306;2023-03-31T15:15:41;3.70;;;0.80;;
63434;SDS011;68814;50.872;5.306;2023-03-31T15:18:10;2.45;;;0.52;;
63434;SDS011;68814;50.872;5.306;2023-03-31T15:20:38;1.92;;;0.40;;
63434;SDS011;68814;50.872;5.306;2023-03-31T15:23:24;4.45;;;0.50;;
63434;SDS011;68814;50.872;5.306;2023-03-31T15:32:22;1.38;;;0.32;;
63434;SDS011;68814;50.872;5.306;2023-03-31T15:34:53;2.30;;;0.40;;
63434;SDS011;68814;50.872;5.306;2023-03-31T15:37:24;2.22;;;0.50;;
63434;SDS011;68814;50.872;5.306;2023-03-31T15:39:54;3.03;;;0.50;;
63434;SDS011;68814;50.872;5.306;2023-03-31T15:42:22;5.18;;;1.38;;
63434;SDS011;68814;50.872;5.306;2023-03-31T15:59:23;4.68;;;0.60;;
63434;SDS011;68814;50.872;5.306;2023-03-31T16:01:51;8.30;;;1.25;;
63434;SDS011;68814;50.872;5.306;2023-03-31T16:04:19;3.20;;;0.50;;
63434;SDS011;68814;50.872;5.306;2023-03-31T16:07:04;3.55;;;0.43;;
63434;SDS011;68814;50.872;5.306;2023-03-31T16:09:52;4.50;;;0.70;;
63434;SDS011;68814;50.872;5.306;2023-03-31T16:12:23;5.30;;;1.20;;
63434;SDS011;68814;50.872;5.306;2023-03-31T16:15:14;3.15;;;0.50;;
63434;SDS011;68814;50.872;5.306;2023-03-31T16:17:53;4.93;;;0.60;;
63434;SDS011;68814;50.872;5.306;2023-03-31T16:20:25;4.70;;;0.70;;
63434;SDS011;68814;50.872;5.306;2023-03-31T16:29:48;7.22;;;1.02;;
63434;SDS011;68814;50.872;5.306;2023-03-31T16:32:15;2.63;;;0.75;;
63434;SDS011;68814;50.872;5.306;2023-03-31T16:34:56;5.88;;;0.90;;
63434;SDS011;68814;50.872;5.306;2023-03-31T16:37:24;4.32;;;1.10;;
63434;SDS011;68814;50.872;5.306;2023-03-31T16:39:50;7.75;;;0.77;;
63434;SDS011;68814;50.872;5.306;2023-03-31T16:42:16;7.18;;;0.88;;
63434;SDS011;68814;50.872;5.306;2023-03-31T16:44:42;7.35;;;1.38;;
63434;SDS011;68814;50.872;5.306;2023-03-31T16:47:09;13.15;;;1.75;;
63434;SDS011;68814;50.872;5.306;2023-03-31T16:49:35;4.70;;;0.70;;
63434;SDS011;68814;50.872;5.306;2023-03-31T16:52:01;6.90;;;0.98;;
63434;SDS011;68814;50.872;5.306;2023-03-31T16:54:27;4.18;;;0.70;;
63434;SDS011;68814;50.872;5.306;2023-03-31T16:56:53;3.95;;;0.77;;
63434;SDS011;68814;50.872;5.306;2023-03-31T16:59:18;4.57;;;0.73;;
63434;SDS011;68814;50.872;5.306;2023-03-31T17:01:44;5.88;;;0.90;;
63434;SDS011;68814;50.872;5.306;2023-03-31T17:04:10;2.75;;;0.68;;
63434;SDS011;68814;50.872;5.306;2023-03-31T17:06:36;6.47;;;0.88;;
63434;SDS011;68814;50.872;5.306;2023-03-31T17:09:02;5.53;;;0.90;;
63434;SDS011;68814;50.872;5.306;2023-03-31T17:11:27;3.53;;;0.77;;
63434;SDS011;68814;50.872;5.306;2023-03-31T17:13:54;7.78;;;2.55;;
63434;SDS011;68814;50.872;5.306;2023-03-31T17:16:21;6.35;;;0.98;;
63434;SDS011;68814;50.872;5.306;2023-03-31T17:18:47;6.75;;;1.92;;
63434;SDS011;68814;50.872;5.306;2023-03-31T17:21:13;3.63;;;0.70;;
63434;SDS011;68814;50.872;5.306;2023-03-31T17:23:42;4.80;;;1.30;;
63434;SDS011;68814;50.872;5.306;2023-03-31T17:39:15;5.25;;;0.80;;
63434;SDS011;68814;50.872;5.306;2023-03-31T17:41:41;6.88;;;0.90;;
63434;SDS011;68814;50.872;5.306;2023-03-31T17:44:06;5.20;;;0.77;;
63434;SDS011;68814;50.872;5.306;2023-03-31T17:46:33;4.25;;;0.95;;
63434;SDS011;68814;50.872;5.306;2023-03-31T17:48:59;3.85;;;0.70;;
63434;SDS011;68814;50.872;5.306;2023-03-31T17:51:25;6.25;;;1.55;;
63434;SDS011;68814;50.872;5.306;2023-03-31T17:53:52;6.13;;;1.00;;
63434;SDS011;68814;50.872;5.306;2023-03-31T17:56:17;5.28;;;1.20;;
63434;SDS011;68814;50.872;5.306;2023-03-31T17:58:43;6.75;;;1.33;;
63434;SDS011;68814;50.872;5.306;2023-03-31T18:01:19;9.32;;;2.05;;
63434;SDS011;68814;50.872;5.306;2023-03-31T18:03:45;7.70;;;1.50;;
63434;SDS011;68814;50.872;5.306;2023-03-31T18:06:12;7.45;;;0.95;;
63434;SDS011;68814;50.872;5.306;2023-03-31T18:08:39;7.82;;;1.45;;
63434;SDS011;68814;50.872;5.306;2023-03-31T18:11:06;8.68;;;0.98;;
63434;SDS011;68814;50.872;5.306;2023-03-31T18:13:33;12.10;;;2.45;;
63434;SDS011;68814;50.872;5.306;2023-03-31T18:16:00;7.90;;;1.40;;
63434;SDS011;68814;50.872;5.306;2023-03-31T18:18:26;11.07;;;2.97;;
63434;SDS011;68814;50.872;5.306;2023-03-31T18:20:53;9.70;;;2.35;;
63434;SDS011;68814;50.872;5.306;2023-03-31T18:23:19;7.13;;;1.50;;
63434;SDS011;68814;50.872;5.306;2023-03-31T18:25:45;17.38;;;3.60;;
63434;SDS011;68814;50.872;5.306;2023-03-31T18:28:14;9.35;;;1.73;;
63434;SDS011;68814;50.872;5.306;2023-03-31T18:30:41;6.57;;;1.63;;
63434;SDS011;68814;50.872;5.306;2023-03-31T18:33:07;22.45;;;5.57;;
63434;SDS011;68814;50.872;5.306;2023-03-31T18:35:33;12.50;;;2.83;;
63434;SDS011;68814;50.872;5.306;2023-03-31T18:37:59;13.45;;;2.58;;
63434;SDS011;68814;50.872;5.306;2023-03-31T18:40:25;12.85;;;3.08;;
63434;SDS011;68814;50.872;5.306;2023-03-31T18:42:51;8.93;;;2.35;;
63434;SDS011;68814;50.872;5.306;2023-03-31T18:45:17;13.63;;;1.88;;
63434;SDS011;68814;50.872;5.306;2023-03-31T18:47:42;23.02;;;4.65;;
63434;SDS011;68814;50.872;5.306;2023-03-31T18:50:08;9.00;;;1.40;;
63434;SDS011;68814;50.872;5.306;2023-03-31T18:52:34;14.32;;;1.85;;
63434;SDS011;68814;50.872;5.306;2023-03-31T18:55:01;14.70;;;1.88;;
63434;SDS011;68814;50.872;5.306;2023-03-31T18:57:27;9.93;;;2.25;;
63434;SDS011;68814;50.872;5.306;2023-03-31T18:59:53;10.70;;;1.75;;
63434;SDS011;68814;50.872;5.306;2023-03-31T19:02:20;13.95;;;2.38;;
63434;SDS011;68814;50.872;5.306;2023-03-31T19:04:46;11.15;;;2.17;;
63434;SDS011;68814;50.872;5.306;2023-03-31T19:07:12;7.22;;;0.93;;
63434;SDS011;68814;50.872;5.306;2023-03-31T19:09:38;16.63;;;5.55;;
63434;SDS011;68814;50.872;5.306;2023-03-31T19:12:04;11.38;;;2.60;;
63434;SDS011;68814;50.872;5.306;2023-03-31T19:14:30;8.60;;;1.77;;
63434;SDS011;68814;50.872;5.306;2023-03-31T19:16:56;10.57;;;2.40;;
63434;SDS011;68814;50.872;5.306;2023-03-31T19:19:22;10.27;;;3.10;;
63434;SDS011;68814;50.872;5.306;2023-03-31T19:21:48;7.25;;;1.25;;
63434;SDS011;68814;50.872;5.306;2023-03-31T19:34:21;7.28;;;1.23;;
63434;SDS011;68814;50.872;5.306;2023-03-31T19:36:47;6.75;;;1.67;;
63434;SDS011;68814;50.872;5.306;2023-03-31T19:39:13;7.68;;;1.33;;
63434;SDS011;68814;50.872;5.306;2023-03-31T19:41:39;5.90;;;1.15;;
63434;SDS011;68814;50.872;5.306;2023-03-31T19:44:04;11.90;;;1.38;;
63434;SDS011;68814;50.872;5.306;2023-03-31T19:56:41;6.20;;;1.17;;
63434;SDS011;68814;50.872;5.306;2023-03-31T19:59:07;7.90;;;1.13;;
63434;SDS011;68814;50.872;5.306;2023-03-31T20:01:32;10.73;;;2.20;;
63434;SDS011;68814;50.872;5.306;2023-03-31T20:03:58;10.23;;;1.83;;
63434;SDS011;68814;50.872;5.306;2023-03-31T20:06:25;10.82;;;1.20;;
63434;SDS011;68814;50.872;5.306;2023-03-31T20:22:20;10.10;;;1.52;;
63434;SDS011;68814;50.872;5.306;2023-03-31T20:24:45;12.95;;;2.00;;
63434;SDS011;68814;50.872;5.306;2023-03-31T20:27:11;12.60;;;1.98;;
63434;SDS011;68814;50.872;5.306;2023-03-31T20:29:36;10.82;;;1.65;;
63434;SDS011;68814;50.872;5.306;2023-03-31T20:32:02;15.15;;;1.60;;
63434;SDS011;68814;50.872;5.306;2023-03-31T21:13:55;6.18;;;0.90;;
63434;SDS011;68814;50.872;5.306;2023-03-31T21:16:21;9.65;;;1.17;;
63434;SDS011;68814;50.872;5.306;2023-03-31T21:18:47;7.97;;;1.38;;
63434;SDS011;68814;50.872;5.306;2023-03-31T21:21:15;9.68;;;1.58;;
63434;SDS011;68814;50.872;5.306;2023-03-31T21:23:43;6.07;;;0.80;;
63434;SDS011;68814;50.872;5.306;2023-03-31T21:26:10;6.90;;;1.40;;
63434;SDS011;68814;50.872;5.306;2023-03-31T21:28:39;10.05;;;1.25;;
63434;SDS011;68814;50.872;5.306;2023-03-31T21:31:15;13.93;;;1.52;;
63434;SDS011;68814;50.872;5.306;2023-03-31T21:33:42;10.43;;;1.10;;
63434;SDS011;68814;50.872;5.306;2023-03-31T21:36:11;9.43;;;1.58;;
63434;SDS011;68814;50.872;5.306;2023-03-31T21:38:38;10.63;;;1.48;;
63434;SDS011;68814;50.872;5.306;2023-03-31T21:41:11;6.88;;;1.40;;
63434;SDS011;68814;50.872;5.306;2023-03-31T21:43:38;8.82;;;1.05;;
63434;SDS011;68814;50.872;5.306;2023-03-31T21:46:05;9.05;;;1.92;;
63434;SDS011;68814;50.872;5.306;2023-03-31T21:48:31;6.90;;;1.17;;
63434;SDS011;68814;50.872;5.306;2023-03-31T21:50:57;13.27;;;1.58;;
63434;SDS011;68814;50.872;5.306;2023-03-31T21:53:25;9.88;;;1.20;;
63434;SDS011;68814;50.872;5.306;2023-03-31T21:55:53;7.07;;;1.15;;
63434;SDS011;68814;50.872;5.306;2023-03-31T21:58:23;13.15;;;1.40;;
63434;SDS011;68814;50.872;5.306;2023-03-31T22:00:53;8.95;;;1.10;;
63434;SDS011;68814;50.872;5.306;2023-03-31T22:03:20;8.65;;;1.48;;
63434;SDS011;68814;50.872;5.306;2023-03-31T22:05:47;5.03;;;1.45;;
63434;SDS011;68814;50.872;5.306;2023-03-31T22:08:13;6.13;;;1.08;;
63434;SDS011;68814;50.872;5.306;2023-03-31T22:10:38;10.85;;;1.10;;
63434;SDS011;68814;50.872;5.306;2023-03-31T22:13:04;8.88;;;1.00;;
63434;SDS011;68814;50.872;5.306;2023-03-31T22:15:29;10.48;;;0.95;;
63434;SDS011;68814;50.872;5.306;2023-03-31T22:17:55;10.63;;;1.35;;
63434;SDS011;68814;50.872;5.306;2023-03-31T22:20:21;10.73;;;1.30;;
63434;SDS011;68814;50.872;5.306;2023-03-31T22:22:47;4.25;;;0.90;;
63434;SDS011;68814;50.872;5.306;2023-03-31T22:25:13;8.05;;;1.20;;
63434;SDS011;68814;50.872;5.306;2023-03-31T22:27:40;5.57;;;0.77;;
63434;SDS011;68814;50.872;5.306;2023-03-31T22:30:06;7.10;;;0.93;;
63434;SDS011;68814;50.872;5.306;2023-03-31T22:32:32;8.50;;;1.50;;
63434;SDS011;68814;50.872;5.306;2023-03-31T22:34:57;9.40;;;1.35;;
63434;SDS011;68814;50.872;5.306;2023-03-31T22:47:30;8.70;;;0.93;;
63434;SDS011;68814;50.872;5.306;2023-03-31T22:49:56;9.57;;;1.27;;
63434;SDS011;68814;50.872;5.306;2023-03-31T22:52:22;8.80;;;1.02;;
63434;SDS011;68814;50.872;5.306;2023-03-31T22:54:47;10.80;;;1.15;;
63434;SDS011;68814;50.872;5.306;2023-03-31T22:57:13;6.25;;;0.70;;
63434;SDS011;68814;50.872;5.306;2023-03-31T22:59:39;8.60;;;1.10;;
63434;SDS011;68814;50.872;5.306;2023-03-31T23:02:05;1.98;;;0.50;;
63434;SDS011;68814;50.872;5.306;2023-03-31T23:04:31;5.30;;;0.88;;
63434;SDS011;68814;50.872;5.306;2023-03-31T23:06:57;6.93;;;1.10;;
63434;SDS011;68814;50.872;5.306;2023-03-31T23:09:23;4.85;;;0.70;;
63434;SDS011;68814;50.872;5.306;2023-03-31T23:11:49;8.45;;;2.28;;
63434;SDS011;68814;50.872;5.306;2023-03-31T23:24:21;7.32;;;1.30;;
63434;SDS011;68814;50.872;5.306;2023-03-31T23:26:48;5.20;;;0.93;;
63434;SDS011;68814;50.872;5.306;2023-03-31T23:29:14;6.75;;;0.80;;
63434;SDS011;68814;50.872;5.306;2023-03-31T23:31:40;4.45;;;0.60;;
63434;SDS011;68814;50.872;5.306;2023-03-31T23:34:06;3.70;;;0.45;;
63434;SDS011;68814;50.872;5.306;2023-03-31T23:36:31;5.97;;;0.90;;
63434;SDS011;68814;50.872;5.306;2023-03-31T23:38:57;3.47;;;0.40;;
63434;SDS011;68814;50.872;5.306;2023-03-31T23:41:38;3.60;;;1.13;;
63434;SDS011;68814;50.872;5.306;2023-03-31T23:44:04;4.47;;;0.77;;
63434;SDS011;68814;50.872;5.306;2023-03-31T23:46:30;4.45;;;0.70;;
63434;SDS011;68814;50.872;5.306;2023-03-31T23:48:57;5.85;;;0.50;;